sensor_id;sensor_type;location;lat;lon;timestamp;P1;durP1;ratioP1;P2;durP2;ratioP2
58784;SDS011;44557;51.862;19.378;2023-04-24T00:00:11;16.30;;;9.80;;
58784;SDS011;44557;51.862;19.378;2023-04-24T00:02:36;13.30;;;10.30;;
58784;SDS011;44557;51.862;19.378;2023-04-24T00:04:41;14.70;;;10.10;;
58784;SDS011;44557;51.862;19.378;2023-04-24T00:06:45;13.80;;;9.90;;
58784;SDS011;44557;51.862;19.378;2023-04-24T00:08:50;13.80;;;9.40;;
58784;SDS011;44557;51.862;19.378;2023-04-24T00:10:52;14.70;;;9.60;;
58784;SDS011;44557;51.862;19.378;2023-04-24T00:12:53;15.50;;;9.80;;
58784;SDS011;44557;51.862;19.378;2023-04-24T00:14:55;14.20;;;9.40;;
58784;SDS011;44557;51.862;19.378;2023-04-24T00:16:57;14.00;;;9.50;;
58784;SDS011;44557;51.862;19.378;2023-04-24T00:18:58;14.70;;;10.00;;
58784;SDS011;44557;51.862;19.378;2023-04-24T00:21:02;11.80;;;9.10;;
58784;SDS011;44557;51.862;19.378;2023-04-24T00:23:04;14.70;;;9.20;;
58784;SDS011;44557;51.862;19.378;2023-04-24T00:25:06;13.20;;;10.40;;
58784;SDS011;44557;51.862;19.378;2023-04-24T00:27:08;15.20;;;10.30;;
58784;SDS011;44557;51.862;19.378;2023-04-24T00:29:09;14.10;;;10.20;;
58784;SDS011;44557;51.862;19.378;2023-04-24T00:31:11;16.20;;;11.80;;
58784;SDS011;44557;51.862;19.378;2023-04-24T00:33:13;13.70;;;10.90;;
58784;SDS011;44557;51.862;19.378;2023-04-24T00:35:15;16.30;;;10.90;;
58784;SDS011;44557;51.862;19.378;2023-04-24T00:37:16;14.10;;;11.30;;
58784;SDS011;44557;51.862;19.378;2023-04-24T00:39:19;14.00;;;10.60;;
58784;SDS011;44557;51.862;19.378;2023-04-24T00:41:21;14.70;;;11.10;;
58784;SDS011;44557;51.862;19.378;2023-04-24T00:43:23;14.10;;;10.60;;
58784;SDS011;44557;51.862;19.378;2023-04-24T00:45:24;14.90;;;10.40;;
58784;SDS011;44557;51.862;19.378;2023-04-24T00:47:26;15.70;;;11.00;;
58784;SDS011;44557;51.862;19.378;2023-04-24T00:49:28;16.30;;;10.70;;
58784;SDS011;44557;51.862;19.378;2023-04-24T00:51:29;16.50;;;11.60;;
58784;SDS011;44557;51.862;19.378;2023-04-24T00:53:33;18.10;;;11.30;;
58784;SDS011;44557;51.862;19.378;2023-04-24T00:55:35;15.20;;;11.60;;
58784;SDS011;44557;51.862;19.378;2023-04-24T00:57:38;14.90;;;10.70;;
58784;SDS011;44557;51.862;19.378;2023-04-24T00:59:41;15.60;;;11.60;;
58784;SDS011;44557;51.862;19.378;2023-04-24T01:01:44;18.40;;;10.90;;
58784;SDS011;44557;51.862;19.378;2023-04-24T01:03:46;15.70;;;10.70;;
58784;SDS011;44557;51.862;19.378;2023-04-24T01:05:49;14.70;;;11.00;;
58784;SDS011;44557;51.862;19.378;2023-04-24T01:07:50;16.30;;;11.30;;
58784;SDS011;44557;51.862;19.378;2023-04-24T01:09:52;15.60;;;10.90;;
58784;SDS011;44557;51.862;19.378;2023-04-24T01:11:54;17.20;;;11.20;;
58784;SDS011;44557;51.862;19.378;2023-04-24T01:13:56;14.80;;;10.70;;
58784;SDS011;44557;51.862;19.378;2023-04-24T01:15:58;14.30;;;10.70;;
58784;SDS011;44557;51.862;19.378;2023-04-24T01:18:00;14.70;;;11.50;;
58784;SDS011;44557;51.862;19.378;2023-04-24T01:20:02;13.70;;;10.80;;
58784;SDS011;44557;51.862;19.378;2023-04-24T01:22:08;16.30;;;11.50;;
58784;SDS011;44557;51.862;19.378;2023-04-24T01:24:13;16.30;;;11.10;;
58784;SDS011;44557;51.862;19.378;2023-04-24T01:26:15;15.10;;;11.40;;
58784;SDS011;44557;51.862;19.378;2023-04-24T01:28:20;16.70;;;11.80;;
58784;SDS011;44557;51.862;19.378;2023-04-24T01:30:22;13.90;;;10.20;;
58784;SDS011;44557;51.862;19.378;2023-04-24T01:32:24;15.10;;;10.70;;
58784;SDS011;44557;51.862;19.378;2023-04-24T01:34:26;13.60;;;10.40;;
58784;SDS011;44557;51.862;19.378;2023-04-24T01:36:28;13.30;;;10.80;;
58784;SDS011;44557;51.862;19.378;2023-04-24T01:38:32;13.20;;;10.60;;
58784;SDS011;44557;51.862;19.378;2023-04-24T01:40:34;15.00;;;10.70;;
58784;SDS011;44557;51.862;19.378;2023-04-24T01:42:36;14.60;;;10.80;;
58784;SDS011;44557;51.862;19.378;2023-04-24T01:44:38;13.60;;;10.10;;
58784;SDS011;44557;51.862;19.378;2023-04-24T01:46:40;13.70;;;11.00;;
58784;SDS011;44557;51.862;19.378;2023-04-24T01:48:42;13.40;;;10.50;;
58784;SDS011;44557;51.862;19.378;2023-04-24T01:50:45;13.30;;;10.90;;
58784;SDS011;44557;51.862;19.378;2023-04-24T01:52:47;16.90;;;10.80;;
58784;SDS011;44557;51.862;19.378;2023-04-24T01:54:48;14.90;;;11.40;;
58784;SDS011;44557;51.862;19.378;2023-04-24T01:56:50;13.20;;;10.50;;
58784;SDS011;44557;51.862;19.378;2023-04-24T01:58:52;16.90;;;11.00;;
58784;SDS011;44557;51.862;19.378;2023-04-24T02:00:56;14.10;;;10.70;;
58784;SDS011;44557;51.862;19.378;2023-04-24T02:02:59;16.00;;;10.60;;
58784;SDS011;44557;51.862;19.378;2023-04-24T02:05:03;13.20;;;11.00;;
58784;SDS011;44557;51.862;19.378;2023-04-24T02:07:07;15.00;;;11.80;;
58784;SDS011;44557;51.862;19.378;2023-04-24T02:09:09;15.30;;;10.80;;
58784;SDS011;44557;51.862;19.378;2023-04-24T02:11:11;15.90;;;11.60;;
58784;SDS011;44557;51.862;19.378;2023-04-24T02:13:13;16.10;;;11.50;;
58784;SDS011;44557;51.862;19.378;2023-04-24T02:15:15;18.20;;;11.90;;
58784;SDS011;44557;51.862;19.378;2023-04-24T02:17:17;15.50;;;10.40;;
58784;SDS011;44557;51.862;19.378;2023-04-24T02:19:20;16.20;;;12.10;;
58784;SDS011;44557;51.862;19.378;2023-04-24T02:21:21;15.80;;;11.20;;
58784;SDS011;44557;51.862;19.378;2023-04-24T02:23:23;15.50;;;11.00;;
58784;SDS011;44557;51.862;19.378;2023-04-24T02:25:25;16.90;;;11.60;;
58784;SDS011;44557;51.862;19.378;2023-04-24T02:27:26;13.70;;;11.30;;
58784;SDS011;44557;51.862;19.378;2023-04-24T02:29:28;16.50;;;11.80;;
58784;SDS011;44557;51.862;19.378;2023-04-24T02:31:33;18.10;;;12.70;;
58784;SDS011;44557;51.862;19.378;2023-04-24T02:33:35;17.00;;;11.00;;
58784;SDS011;44557;51.862;19.378;2023-04-24T02:35:36;16.00;;;11.80;;
58784;SDS011;44557;51.862;19.378;2023-04-24T02:37:38;14.50;;;11.20;;
58784;SDS011;44557;51.862;19.378;2023-04-24T02:39:40;15.30;;;11.10;;
58784;SDS011;44557;51.862;19.378;2023-04-24T02:41:42;14.50;;;10.60;;
58784;SDS011;44557;51.862;19.378;2023-04-24T02:43:44;13.90;;;10.00;;
58784;SDS011;44557;51.862;19.378;2023-04-24T02:45:45;12.30;;;9.50;;
58784;SDS011;44557;51.862;19.378;2023-04-24T02:47:47;14.70;;;10.70;;
58784;SDS011;44557;51.862;19.378;2023-04-24T02:49:49;14.30;;;9.90;;
58784;SDS011;44557;51.862;19.378;2023-04-24T02:51:51;15.20;;;10.40;;
58784;SDS011;44557;51.862;19.378;2023-04-24T02:53:53;16.40;;;10.10;;
58784;SDS011;44557;51.862;19.378;2023-04-24T02:55:55;15.30;;;10.00;;
58784;SDS011;44557;51.862;19.378;2023-04-24T02:57:56;14.40;;;9.20;;
58784;SDS011;44557;51.862;19.378;2023-04-24T02:59:58;13.80;;;9.30;;
58784;SDS011;44557;51.862;19.378;2023-04-24T03:01:59;12.10;;;9.10;;
58784;SDS011;44557;51.862;19.378;2023-04-24T03:04:01;18.50;;;10.10;;
58784;SDS011;44557;51.862;19.378;2023-04-24T03:06:04;14.80;;;8.80;;
58784;SDS011;44557;51.862;19.378;2023-04-24T03:08:07;13.80;;;9.60;;
58784;SDS011;44557;51.862;19.378;2023-04-24T03:10:08;15.20;;;9.30;;
58784;SDS011;44557;51.862;19.378;2023-04-24T03:12:10;12.90;;;8.50;;
58784;SDS011;44557;51.862;19.378;2023-04-24T03:14:12;11.40;;;8.30;;
58784;SDS011;44557;51.862;19.378;2023-04-24T03:16:13;14.60;;;9.30;;
58784;SDS011;44557;51.862;19.378;2023-04-24T03:18:15;12.60;;;8.50;;
58784;SDS011;44557;51.862;19.378;2023-04-24T03:20:17;12.00;;;9.00;;
58784;SDS011;44557;51.862;19.378;2023-04-24T03:22:18;16.40;;;9.70;;
58784;SDS011;44557;51.862;19.378;2023-04-24T03:24:20;17.50;;;8.90;;
58784;SDS011;44557;51.862;19.378;2023-04-24T03:26:21;13.30;;;9.30;;
58784;SDS011;44557;51.862;19.378;2023-04-24T03:28:23;14.30;;;9.90;;
58784;SDS011;44557;51.862;19.378;2023-04-24T03:30:26;16.80;;;9.40;;
58784;SDS011;44557;51.862;19.378;2023-04-24T03:32:27;13.30;;;9.00;;
58784;SDS011;44557;51.862;19.378;2023-04-24T03:34:29;14.00;;;9.30;;
58784;SDS011;44557;51.862;19.378;2023-04-24T03:36:30;13.30;;;9.40;;
58784;SDS011;44557;51.862;19.378;2023-04-24T03:38:32;13.20;;;8.80;;
58784;SDS011;44557;51.862;19.378;2023-04-24T03:40:34;12.70;;;9.30;;
58784;SDS011;44557;51.862;19.378;2023-04-24T03:42:36;15.20;;;9.20;;
58784;SDS011;44557;51.862;19.378;2023-04-24T03:44:38;13.60;;;9.00;;
58784;SDS011;44557;51.862;19.378;2023-04-24T03:46:40;15.00;;;9.40;;
58784;SDS011;44557;51.862;19.378;2023-04-24T03:48:41;13.40;;;9.30;;
58784;SDS011;44557;51.862;19.378;2023-04-24T03:50:44;15.20;;;8.90;;
58784;SDS011;44557;51.862;19.378;2023-04-24T03:52:46;14.90;;;8.70;;
58784;SDS011;44557;51.862;19.378;2023-04-24T03:54:47;14.50;;;8.30;;
58784;SDS011;44557;51.862;19.378;2023-04-24T03:56:49;12.10;;;8.10;;
58784;SDS011;44557;51.862;19.378;2023-04-24T03:58:51;11.10;;;8.40;;
58784;SDS011;44557;51.862;19.378;2023-04-24T04:00:52;13.40;;;9.00;;
58784;SDS011;44557;51.862;19.378;2023-04-24T04:02:54;15.90;;;9.40;;
58784;SDS011;44557;51.862;19.378;2023-04-24T04:04:56;14.50;;;9.90;;
58784;SDS011;44557;51.862;19.378;2023-04-24T04:06:57;16.80;;;9.70;;
58784;SDS011;44557;51.862;19.378;2023-04-24T04:09:02;14.40;;;9.70;;
58784;SDS011;44557;51.862;19.378;2023-04-24T04:11:04;15.00;;;9.60;;
58784;SDS011;44557;51.862;19.378;2023-04-24T04:13:06;16.60;;;10.10;;
58784;SDS011;44557;51.862;19.378;2023-04-24T04:15:07;13.80;;;10.30;;
58784;SDS011;44557;51.862;19.378;2023-04-24T04:17:09;16.40;;;9.40;;
58784;SDS011;44557;51.862;19.378;2023-04-24T04:19:11;16.80;;;9.10;;
58784;SDS011;44557;51.862;19.378;2023-04-24T04:21:12;13.70;;;8.70;;
58784;SDS011;44557;51.862;19.378;2023-04-24T04:23:14;12.90;;;8.30;;
58784;SDS011;44557;51.862;19.378;2023-04-24T04:25:15;15.30;;;9.10;;
58784;SDS011;44557;51.862;19.378;2023-04-24T04:27:20;17.40;;;11.70;;
58784;SDS011;44557;51.862;19.378;2023-04-24T04:29:22;14.10;;;8.80;;
58784;SDS011;44557;51.862;19.378;2023-04-24T04:31:25;13.40;;;8.30;;
58784;SDS011;44557;51.862;19.378;2023-04-24T04:33:26;13.50;;;8.40;;
58784;SDS011;44557;51.862;19.378;2023-04-24T04:35:28;13.70;;;8.40;;
58784;SDS011;44557;51.862;19.378;2023-04-24T04:37:30;17.30;;;9.90;;
58784;SDS011;44557;51.862;19.378;2023-04-24T04:39:32;13.30;;;8.70;;
58784;SDS011;44557;51.862;19.378;2023-04-24T04:41:34;14.40;;;9.20;;
58784;SDS011;44557;51.862;19.378;2023-04-24T04:43:36;16.50;;;10.20;;
58784;SDS011;44557;51.862;19.378;2023-04-24T04:45:39;15.40;;;9.20;;
58784;SDS011;44557;51.862;19.378;2023-04-24T04:47:42;15.30;;;8.50;;
58784;SDS011;44557;51.862;19.378;2023-04-24T04:49:44;15.20;;;8.60;;
58784;SDS011;44557;51.862;19.378;2023-04-24T04:51:45;13.00;;;8.90;;
58784;SDS011;44557;51.862;19.378;2023-04-24T04:53:48;15.10;;;9.10;;
58784;SDS011;44557;51.862;19.378;2023-04-24T04:55:49;13.40;;;8.90;;
58784;SDS011;44557;51.862;19.378;2023-04-24T04:57:51;14.50;;;9.30;;
58784;SDS011;44557;51.862;19.378;2023-04-24T04:59:53;16.40;;;9.10;;
58784;SDS011;44557;51.862;19.378;2023-04-24T05:01:56;13.50;;;8.50;;
58784;SDS011;44557;51.862;19.378;2023-04-24T05:03:57;14.90;;;8.60;;
58784;SDS011;44557;51.862;19.378;2023-04-24T05:05:59;15.20;;;9.40;;
58784;SDS011;44557;51.862;19.378;2023-04-24T05:08:01;15.80;;;8.50;;
58784;SDS011;44557;51.862;19.378;2023-04-24T05:10:02;15.10;;;8.60;;
58784;SDS011;44557;51.862;19.378;2023-04-24T05:12:04;14.50;;;8.20;;
58784;SDS011;44557;51.862;19.378;2023-04-24T05:14:06;12.20;;;8.30;;
58784;SDS011;44557;51.862;19.378;2023-04-24T05:16:07;14.70;;;7.90;;
58784;SDS011;44557;51.862;19.378;2023-04-24T05:18:09;16.30;;;7.80;;
58784;SDS011;44557;51.862;19.378;2023-04-24T05:20:11;13.60;;;7.80;;
58784;SDS011;44557;51.862;19.378;2023-04-24T05:22:12;15.70;;;7.40;;
58784;SDS011;44557;51.862;19.378;2023-04-24T05:24:14;14.60;;;7.90;;
58784;SDS011;44557;51.862;19.378;2023-04-24T05:26:16;14.10;;;8.10;;
58784;SDS011;44557;51.862;19.378;2023-04-24T05:28:19;12.80;;;8.20;;
58784;SDS011;44557;51.862;19.378;2023-04-24T05:30:21;14.20;;;8.10;;
58784;SDS011;44557;51.862;19.378;2023-04-24T05:32:22;13.40;;;8.70;;
58784;SDS011;44557;51.862;19.378;2023-04-24T05:34:24;13.40;;;8.00;;
58784;SDS011;44557;51.862;19.378;2023-04-24T05:36:25;12.70;;;8.10;;
58784;SDS011;44557;51.862;19.378;2023-04-24T05:38:28;14.40;;;8.10;;
58784;SDS011;44557;51.862;19.378;2023-04-24T05:40:29;11.70;;;8.00;;
58784;SDS011;44557;51.862;19.378;2023-04-24T05:42:31;16.80;;;7.90;;
58784;SDS011;44557;51.862;19.378;2023-04-24T05:44:33;13.60;;;8.30;;
58784;SDS011;44557;51.862;19.378;2023-04-24T05:46:35;12.30;;;7.90;;
58784;SDS011;44557;51.862;19.378;2023-04-24T05:48:36;13.70;;;8.40;;
58784;SDS011;44557;51.862;19.378;2023-04-24T05:50:38;14.00;;;8.10;;
58784;SDS011;44557;51.862;19.378;2023-04-24T05:52:40;15.80;;;8.70;;
58784;SDS011;44557;51.862;19.378;2023-04-24T05:54:41;13.40;;;7.90;;
58784;SDS011;44557;51.862;19.378;2023-04-24T05:56:43;11.30;;;7.70;;
58784;SDS011;44557;51.862;19.378;2023-04-24T05:58:45;13.00;;;7.70;;
58784;SDS011;44557;51.862;19.378;2023-04-24T06:00:47;14.70;;;8.70;;
58784;SDS011;44557;51.862;19.378;2023-04-24T06:02:49;14.10;;;8.30;;
58784;SDS011;44557;51.862;19.378;2023-04-24T06:04:51;14.50;;;8.30;;
58784;SDS011;44557;51.862;19.378;2023-04-24T06:06:52;15.50;;;8.00;;
58784;SDS011;44557;51.862;19.378;2023-04-24T06:08:57;15.70;;;7.60;;
58784;SDS011;44557;51.862;19.378;2023-04-24T06:10:59;13.10;;;6.60;;
58784;SDS011;44557;51.862;19.378;2023-04-24T06:13:01;13.10;;;8.10;;
58784;SDS011;44557;51.862;19.378;2023-04-24T06:15:03;11.10;;;6.80;;
58784;SDS011;44557;51.862;19.378;2023-04-24T06:17:05;10.30;;;6.90;;
58784;SDS011;44557;51.862;19.378;2023-04-24T06:19:06;13.20;;;6.90;;
58784;SDS011;44557;51.862;19.378;2023-04-24T06:21:08;14.60;;;8.20;;
58784;SDS011;44557;51.862;19.378;2023-04-24T06:23:10;13.20;;;7.10;;
58784;SDS011;44557;51.862;19.378;2023-04-24T06:25:11;12.00;;;7.30;;
58784;SDS011;44557;51.862;19.378;2023-04-24T06:27:13;11.80;;;6.90;;
58784;SDS011;44557;51.862;19.378;2023-04-24T06:29:15;14.10;;;6.60;;
58784;SDS011;44557;51.862;19.378;2023-04-24T06:31:16;11.80;;;6.90;;
58784;SDS011;44557;51.862;19.378;2023-04-24T06:33:18;11.60;;;6.40;;
58784;SDS011;44557;51.862;19.378;2023-04-24T06:35:20;10.60;;;6.30;;
58784;SDS011;44557;51.862;19.378;2023-04-24T06:37:21;10.50;;;6.20;;
58784;SDS011;44557;51.862;19.378;2023-04-24T06:39:23;11.60;;;6.40;;
58784;SDS011;44557;51.862;19.378;2023-04-24T06:41:25;9.60;;;6.70;;
58784;SDS011;44557;51.862;19.378;2023-04-24T06:43:27;10.80;;;6.10;;
58784;SDS011;44557;51.862;19.378;2023-04-24T06:45:28;10.70;;;6.00;;
58784;SDS011;44557;51.862;19.378;2023-04-24T06:47:31;14.60;;;6.50;;
58784;SDS011;44557;51.862;19.378;2023-04-24T06:49:34;9.60;;;6.20;;
58784;SDS011;44557;51.862;19.378;2023-04-24T06:51:38;10.50;;;6.40;;
58784;SDS011;44557;51.862;19.378;2023-04-24T06:53:40;11.00;;;6.50;;
58784;SDS011;44557;51.862;19.378;2023-04-24T06:55:42;10.00;;;6.40;;
58784;SDS011;44557;51.862;19.378;2023-04-24T06:57:44;8.60;;;6.70;;
58784;SDS011;44557;51.862;19.378;2023-04-24T06:59:46;11.40;;;6.10;;
58784;SDS011;44557;51.862;19.378;2023-04-24T07:01:47;10.20;;;6.00;;
58784;SDS011;44557;51.862;19.378;2023-04-24T07:03:49;12.00;;;6.20;;
58784;SDS011;44557;51.862;19.378;2023-04-24T07:05:50;10.10;;;5.70;;
58784;SDS011;44557;51.862;19.378;2023-04-24T07:07:52;9.80;;;5.70;;
58784;SDS011;44557;51.862;19.378;2023-04-24T07:09:54;11.30;;;6.50;;
58784;SDS011;44557;51.862;19.378;2023-04-24T07:11:57;9.60;;;6.00;;
58784;SDS011;44557;51.862;19.378;2023-04-24T07:13:59;10.00;;;6.20;;
58784;SDS011;44557;51.862;19.378;2023-04-24T07:16:00;7.80;;;5.90;;
58784;SDS011;44557;51.862;19.378;2023-04-24T07:18:02;11.40;;;5.70;;
58784;SDS011;44557;51.862;19.378;2023-04-24T07:20:06;11.20;;;5.60;;
58784;SDS011;44557;51.862;19.378;2023-04-24T07:22:11;13.00;;;6.30;;
58784;SDS011;44557;51.862;19.378;2023-04-24T07:24:17;12.40;;;5.70;;
58784;SDS011;44557;51.862;19.378;2023-04-24T07:26:19;9.70;;;6.10;;
58784;SDS011;44557;51.862;19.378;2023-04-24T07:28:21;11.20;;;5.30;;
58784;SDS011;44557;51.862;19.378;2023-04-24T07:30:23;9.50;;;5.00;;
58784;SDS011;44557;51.862;19.378;2023-04-24T07:32:25;10.00;;;5.30;;
58784;SDS011;44557;51.862;19.378;2023-04-24T07:34:27;11.10;;;5.30;;
58784;SDS011;44557;51.862;19.378;2023-04-24T07:36:28;8.80;;;5.20;;
58784;SDS011;44557;51.862;19.378;2023-04-24T07:38:30;10.80;;;5.20;;
58784;SDS011;44557;51.862;19.378;2023-04-24T07:40:32;10.10;;;5.30;;
58784;SDS011;44557;51.862;19.378;2023-04-24T07:42:33;8.10;;;5.10;;
58784;SDS011;44557;51.862;19.378;2023-04-24T07:44:36;8.70;;;5.20;;
58784;SDS011;44557;51.862;19.378;2023-04-24T07:46:37;7.80;;;5.10;;
58784;SDS011;44557;51.862;19.378;2023-04-24T07:48:39;9.70;;;5.10;;
58784;SDS011;44557;51.862;19.378;2023-04-24T07:50:40;8.60;;;4.70;;
58784;SDS011;44557;51.862;19.378;2023-04-24T07:52:42;11.20;;;6.00;;
58784;SDS011;44557;51.862;19.378;2023-04-24T07:54:44;9.80;;;5.40;;
58784;SDS011;44557;51.862;19.378;2023-04-24T07:56:46;7.20;;;4.90;;
58784;SDS011;44557;51.862;19.378;2023-04-24T07:58:47;8.20;;;5.20;;
58784;SDS011;44557;51.862;19.378;2023-04-24T08:00:49;9.50;;;5.30;;
58784;SDS011;44557;51.862;19.378;2023-04-24T08:02:51;7.60;;;5.70;;
58784;SDS011;44557;51.862;19.378;2023-04-24T08:04:52;8.10;;;5.40;;
58784;SDS011;44557;51.862;19.378;2023-04-24T08:06:57;10.10;;;5.70;;
58784;SDS011;44557;51.862;19.378;2023-04-24T08:08:59;10.10;;;5.30;;
58784;SDS011;44557;51.862;19.378;2023-04-24T08:11:01;10.10;;;5.40;;
58784;SDS011;44557;51.862;19.378;2023-04-24T08:13:02;11.60;;;5.80;;
58784;SDS011;44557;51.862;19.378;2023-04-24T08:15:07;11.50;;;6.10;;
58784;SDS011;44557;51.862;19.378;2023-04-24T08:17:09;8.10;;;5.70;;
58784;SDS011;44557;51.862;19.378;2023-04-24T08:19:11;10.00;;;5.50;;
58784;SDS011;44557;51.862;19.378;2023-04-24T08:21:12;7.10;;;5.10;;
58784;SDS011;44557;51.862;19.378;2023-04-24T08:23:18;8.90;;;5.40;;
58784;SDS011;44557;51.862;19.378;2023-04-24T08:25:19;8.70;;;5.20;;
58784;SDS011;44557;51.862;19.378;2023-04-24T08:27:22;8.50;;;5.20;;
58784;SDS011;44557;51.862;19.378;2023-04-24T08:29:24;10.00;;;5.40;;
58784;SDS011;44557;51.862;19.378;2023-04-24T08:31:26;10.00;;;5.00;;
58784;SDS011;44557;51.862;19.378;2023-04-24T08:33:28;10.00;;;5.10;;
58784;SDS011;44557;51.862;19.378;2023-04-24T08:35:35;7.90;;;5.20;;
58784;SDS011;44557;51.862;19.378;2023-04-24T08:37:36;7.10;;;4.60;;
58784;SDS011;44557;51.862;19.378;2023-04-24T08:39:38;6.80;;;4.70;;
58784;SDS011;44557;51.862;19.378;2023-04-24T08:41:41;8.50;;;5.00;;
58784;SDS011;44557;51.862;19.378;2023-04-24T08:43:46;8.50;;;4.80;;
58784;SDS011;44557;51.862;19.378;2023-04-24T08:45:49;7.60;;;4.30;;
58784;SDS011;44557;51.862;19.378;2023-04-24T08:47:51;7.40;;;4.80;;
58784;SDS011;44557;51.862;19.378;2023-04-24T08:49:56;8.40;;;4.70;;
58784;SDS011;44557;51.862;19.378;2023-04-24T08:51:58;7.40;;;4.50;;
58784;SDS011;44557;51.862;19.378;2023-04-24T08:54:01;7.10;;;4.20;;
58784;SDS011;44557;51.862;19.378;2023-04-24T08:56:05;7.70;;;4.60;;
58784;SDS011;44557;51.862;19.378;2023-04-24T08:58:06;7.20;;;4.60;;
58784;SDS011;44557;51.862;19.378;2023-04-24T09:00:09;7.70;;;4.60;;
58784;SDS011;44557;51.862;19.378;2023-04-24T09:02:11;7.70;;;4.80;;
58784;SDS011;44557;51.862;19.378;2023-04-24T09:04:14;9.00;;;4.60;;
58784;SDS011;44557;51.862;19.378;2023-04-24T09:06:19;7.00;;;4.20;;
58784;SDS011;44557;51.862;19.378;2023-04-24T09:08:24;6.50;;;4.10;;
58784;SDS011;44557;51.862;19.378;2023-04-24T09:10:27;8.10;;;4.50;;
58784;SDS011;44557;51.862;19.378;2023-04-24T09:12:31;10.10;;;4.50;;
58784;SDS011;44557;51.862;19.378;2023-04-24T09:14:34;7.00;;;4.00;;
58784;SDS011;44557;51.862;19.378;2023-04-24T09:16:37;8.60;;;4.70;;
58784;SDS011;44557;51.862;19.378;2023-04-24T09:18:39;7.50;;;4.50;;
58784;SDS011;44557;51.862;19.378;2023-04-24T09:23:03;9.20;;;4.80;;
58784;SDS011;44557;51.862;19.378;2023-04-24T09:25:07;8.70;;;3.90;;
58784;SDS011;44557;51.862;19.378;2023-04-24T09:27:10;7.50;;;4.60;;
58784;SDS011;44557;51.862;19.378;2023-04-24T09:29:17;9.30;;;4.60;;
58784;SDS011;44557;51.862;19.378;2023-04-24T09:31:19;7.10;;;4.70;;
58784;SDS011;44557;51.862;19.378;2023-04-24T09:33:23;7.20;;;4.00;;
58784;SDS011;44557;51.862;19.378;2023-04-24T09:35:24;8.00;;;4.10;;
58784;SDS011;44557;51.862;19.378;2023-04-24T09:37:27;5.80;;;4.20;;
58784;SDS011;44557;51.862;19.378;2023-04-24T09:39:30;6.20;;;4.10;;
58784;SDS011;44557;51.862;19.378;2023-04-24T09:41:32;6.30;;;4.70;;
58784;SDS011;44557;51.862;19.378;2023-04-24T09:43:35;6.90;;;4.60;;
58784;SDS011;44557;51.862;19.378;2023-04-24T09:45:37;7.80;;;4.80;;
58784;SDS011;44557;51.862;19.378;2023-04-24T09:47:40;8.20;;;4.60;;
58784;SDS011;44557;51.862;19.378;2023-04-24T09:49:42;6.10;;;4.00;;
58784;SDS011;44557;51.862;19.378;2023-04-24T09:51:44;6.90;;;4.60;;
58784;SDS011;44557;51.862;19.378;2023-04-24T09:53:46;8.00;;;4.30;;
58784;SDS011;44557;51.862;19.378;2023-04-24T09:55:48;8.00;;;4.50;;
58784;SDS011;44557;51.862;19.378;2023-04-24T09:57:52;7.80;;;4.70;;
58784;SDS011;44557;51.862;19.378;2023-04-24T09:59:54;7.70;;;4.40;;
58784;SDS011;44557;51.862;19.378;2023-04-24T10:01:56;8.90;;;4.30;;
58784;SDS011;44557;51.862;19.378;2023-04-24T10:03:59;7.50;;;4.90;;
58784;SDS011;44557;51.862;19.378;2023-04-24T10:06:02;8.90;;;4.70;;
58784;SDS011;44557;51.862;19.378;2023-04-24T10:08:10;8.70;;;4.70;;
58784;SDS011;44557;51.862;19.378;2023-04-24T10:10:12;7.90;;;4.70;;
58784;SDS011;44557;51.862;19.378;2023-04-24T10:12:14;11.00;;;5.20;;
58784;SDS011;44557;51.862;19.378;2023-04-24T10:14:20;9.40;;;4.50;;
58784;SDS011;44557;51.862;19.378;2023-04-24T10:16:23;9.60;;;4.70;;
58784;SDS011;44557;51.862;19.378;2023-04-24T10:18:25;12.40;;;5.00;;
58784;SDS011;44557;51.862;19.378;2023-04-24T10:20:28;9.90;;;5.10;;
58784;SDS011;44557;51.862;19.378;2023-04-24T10:22:33;8.70;;;4.40;;
58784;SDS011;44557;51.862;19.378;2023-04-24T10:24:36;7.80;;;4.70;;
58784;SDS011;44557;51.862;19.378;2023-04-24T10:26:40;6.60;;;4.50;;
58784;SDS011;44557;51.862;19.378;2023-04-24T10:28:44;7.50;;;5.10;;
58784;SDS011;44557;51.862;19.378;2023-04-24T10:30:46;7.50;;;5.00;;
58784;SDS011;44557;51.862;19.378;2023-04-24T10:32:48;8.70;;;4.70;;
58784;SDS011;44557;51.862;19.378;2023-04-24T10:34:50;7.80;;;4.30;;
58784;SDS011;44557;51.862;19.378;2023-04-24T10:36:52;7.40;;;4.60;;
58784;SDS011;44557;51.862;19.378;2023-04-24T10:38:56;6.90;;;4.20;;
58784;SDS011;44557;51.862;19.378;2023-04-24T10:41:11;8.00;;;4.50;;
58784;SDS011;44557;51.862;19.378;2023-04-24T10:43:24;8.30;;;4.30;;
58784;SDS011;44557;51.862;19.378;2023-04-24T10:45:25;8.60;;;4.10;;
58784;SDS011;44557;51.862;19.378;2023-04-24T10:47:27;6.80;;;4.40;;
58784;SDS011;44557;51.862;19.378;2023-04-24T10:49:29;7.70;;;4.80;;
58784;SDS011;44557;51.862;19.378;2023-04-24T10:51:50;8.50;;;4.80;;
58784;SDS011;44557;51.862;19.378;2023-04-24T10:53:55;9.20;;;5.10;;
58784;SDS011;44557;51.862;19.378;2023-04-24T10:58:03;7.10;;;4.50;;
58784;SDS011;44557;51.862;19.378;2023-04-24T11:02:23;8.60;;;4.00;;
58784;SDS011;44557;51.862;19.378;2023-04-24T11:04:37;7.40;;;4.90;;
58784;SDS011;44557;51.862;19.378;2023-04-24T11:06:39;8.60;;;4.30;;
58784;SDS011;44557;51.862;19.378;2023-04-24T11:08:45;8.70;;;4.60;;
58784;SDS011;44557;51.862;19.378;2023-04-24T11:10:47;8.50;;;4.30;;
58784;SDS011;44557;51.862;19.378;2023-04-24T11:12:56;7.30;;;4.30;;
58784;SDS011;44557;51.862;19.378;2023-04-24T11:14:59;8.40;;;4.70;;
58784;SDS011;44557;51.862;19.378;2023-04-24T11:17:02;9.30;;;4.70;;
58784;SDS011;44557;51.862;19.378;2023-04-24T11:21:10;11.00;;;4.50;;
58784;SDS011;44557;51.862;19.378;2023-04-24T11:23:17;5.70;;;4.00;;
58784;SDS011;44557;51.862;19.378;2023-04-24T11:25:20;7.80;;;4.90;;
58784;SDS011;44557;51.862;19.378;2023-04-24T11:27:23;7.60;;;4.90;;
58784;SDS011;44557;51.862;19.378;2023-04-24T11:29:41;6.90;;;4.30;;
58784;SDS011;44557;51.862;19.378;2023-04-24T11:31:44;7.70;;;4.70;;
58784;SDS011;44557;51.862;19.378;2023-04-24T11:33:52;7.60;;;4.20;;
58784;SDS011;44557;51.862;19.378;2023-04-24T11:35:54;9.00;;;4.50;;
58784;SDS011;44557;51.862;19.378;2023-04-24T11:37:56;9.20;;;4.20;;
58784;SDS011;44557;51.862;19.378;2023-04-24T11:39:58;10.80;;;4.50;;
58784;SDS011;44557;51.862;19.378;2023-04-24T11:42:03;7.90;;;4.40;;
58784;SDS011;44557;51.862;19.378;2023-04-24T11:44:08;8.60;;;4.40;;
58784;SDS011;44557;51.862;19.378;2023-04-24T11:46:10;7.80;;;4.20;;
58784;SDS011;44557;51.862;19.378;2023-04-24T11:48:12;6.30;;;4.20;;
58784;SDS011;44557;51.862;19.378;2023-04-24T11:50:14;9.90;;;4.20;;
58784;SDS011;44557;51.862;19.378;2023-04-24T11:52:17;7.70;;;4.00;;
58784;SDS011;44557;51.862;19.378;2023-04-24T11:54:19;7.80;;;4.10;;
58784;SDS011;44557;51.862;19.378;2023-04-24T11:56:21;7.20;;;4.30;;
58784;SDS011;44557;51.862;19.378;2023-04-24T11:58:26;10.10;;;3.80;;
58784;SDS011;44557;51.862;19.378;2023-04-24T12:00:29;10.40;;;4.90;;
58784;SDS011;44557;51.862;19.378;2023-04-24T12:02:32;7.80;;;4.80;;
58784;SDS011;44557;51.862;19.378;2023-04-24T12:04:39;9.80;;;4.50;;
58784;SDS011;44557;51.862;19.378;2023-04-24T12:09:02;8.20;;;3.90;;